Date,TemperatureHighF,TemperatureAvgF,TemperatureLowF,DewpointHighF,DewpointAvgF,DewpointLowF,HumidityHigh,HumidityAvg,HumidityLow,PressureMaxIn,PressureMinIn,WindSpeedMaxMPH,WindSpeedAvgMPH,GustSpeedMaxMPH,PrecipitationSumIn
2013-3-1,44,39,34,16,7,-1,43,27,18,29.65,29.50,10,2,10,0.00
2013-3-2,39,35,32,6,-1,-5,32,21,16,29.68,29.56,11,3,11,0.00
2013-3-3,36,32,28,7,-2,-5,34,23,17,29.65,29.56,12,4,12,0.00
2013-3-4,39,32,28,0,-5,-7,23,20,16,29.83,29.65,13,4,13,0.00
2013-3-5,48,36,29,8,2,-4,31,23,15,29.85,29.71,10,2,10,0.00
2013-3-6,40,38,34,26,17,7,60,44,29,29.80,29.56,13,4,14,0.00
2013-3-7,50,40,35,9,3,-5,31,21,14,29.91,29.80,12,4,15,0.00
2013-3-8,49,39,33,5,-2,-6,23,17,14,30.06,29.88,17,5,19,0.00
2013-3-9,64,45,32,13,1,-7,20,16,13,30.12,30.03,8,1,8,0.00
2013-3-10,62,44,27,12,4,-6,37,20,13,30.12,30.03,10,2,10,0.00
2013-3-11,57,48,37,35,25,2,60,42,19,30.06,29.77,10,2,10,0.00
2013-3-12,56,51,42,52,34,10,86,56,26,29.77,29.53,13,4,13,0.00
2013-3-13,49,39,30,16,5,-6,44,25,14,29.80,29.68,13,3,13,0.00
2013-3-14,43,36,29,0,-4,-7,23,18,15,29.85,29.77,16,5,17,0.00
2013-3-15,54,39,24,8,-2,-12,21,17,14,29.85,29.56,15,3,17,0.00
2013-3-16,46,37,32,22,11,-2,63,39,17,29.74,29.56,8,1,8,0.00
2013-3-17,40,34,30,23,11,-4,64,41,18,30.09,29.74,6,1,8,0.00
2013-3-18,36,32,28,23,6,-6,66,34,17,30.12,29.71,9,1,10,0.00
2013-3-19,54,40,34,33,16,-5,78,46,13,29.71,29.50,13,3,15,0.00
2013-3-20,48,39,29,1,-3,-9,20,16,14,29.77,29.56,15,3,16,0.00
2013-3-21,38,33,27,-4,-7,-11,18,18,16,29.65,29.53,12,3,13,0.00
2013-3-22,32,27,25,7,-5,-11,40,24,18,29.68,29.62,8,2,8,0.00
2013-3-24,47,42,28,7,0,-4,33,17,14,29.80,29.47,9,1,9,0.00
2013-3-25,38,36,32,26,16,-1,70,48,19,29.50,29.32,8,1,9,0.00
2013-3-26,53,41,33,26,16,0,72,43,13,29.77,29.47,10,2,10,0.00
2013-3-27,52,42,35,12,6,-1,37,23,14,29.85,29.74,15,4,19,0.00
2013-3-28,51,42,31,14,4,-2,40,22,14,30.00,29.83,12,2,12,0.00
2013-3-29,55,46,35,8,3,-5,23,17,13,30.00,29.91,10,2,10,0.00
2013-3-30,60,44,27,15,5,-5,40,22,13,30.00,29.88,9,1,12,0.00
2013-3-31,54,44,32,39,15,-6,71,35,15,29.91,29.53,13,1,13,0.00